Time;durP1;ratioP1;P1;durP2;ratioP2;P2;SDS_P1;SDS_P2;PMS_P1;PMS_P2;Temp;Humidity;BMP_temperature;BMP_pressure;BME280_temperature;BME280_humidity;BME280_pressure;Samples;Min_cycle;Max_cycle;Signal;HPM_P1;HPM_P2
2022/07/15 00:02:07;;;;;;;10.30;3.03;;;15.70;99.90;;;;;;4973510;28;20449;-70
2022/07/15 00:04:34;;;;;;;12.95;2.28;;;15.70;99.90;;;;;;4973353;28;20023;-68
2022/07/15 00:07:00;;;;;;;8.60;1.73;;;15.70;99.90;;;;;;4973173;28;20027;-71
2022/07/15 00:12:11;;;;;;;8.43;1.80;;;15.80;99.90;;;;;;4973105;28;20038;-69
2022/07/15 00:14:38;;;;;;;9.07;2.33;;;15.70;99.90;;;;;;4973051;28;20077;-68
2022/07/15 00:17:06;;;;;;;10.18;1.90;;;15.70;99.90;;;;;;4973523;28;20034;-69
2022/07/15 00:19:32;;;;;;;8.90;2.97;;;15.70;99.90;;;;;;4973222;28;20069;-67
2022/07/15 00:21:58;;;;;;;9.45;2.25;;;15.70;99.90;;;;;;4973086;28;20034;-70
2022/07/15 00:24:23;;;;;;;9.38;2.22;;;15.70;99.90;;;;;;4973194;28;20023;-68
2022/07/15 00:26:49;;;;;;;11.40;2.95;;;15.60;99.90;;;;;;4972830;28;20050;-68
2022/07/15 00:29:14;;;;;;;10.32;2.38;;;15.60;99.90;;;;;;4973034;28;20037;-69
2022/07/15 00:31:40;;;;;;;6.28;2.00;;;15.60;99.90;;;;;;4971788;28;20038;-68
2022/07/15 00:34:05;;;;;;;14.48;3.85;;;15.50;99.90;;;;;;4972967;28;20026;-70
2022/07/15 00:36:31;;;;;;;13.57;3.78;;;15.50;99.90;;;;;;4972578;28;20070;-68
2022/07/15 00:38:57;;;;;;;6.78;2.63;;;15.50;99.90;;;;;;4972909;28;20364;-68
2022/07/15 00:41:23;;;;;;;11.40;1.30;;;15.40;99.90;;;;;;4973053;28;20426;-67
2022/07/15 00:43:48;;;;;;;7.63;1.50;;;15.40;99.90;;;;;;4973437;28;20513;-70
2022/07/15 00:46:18;;;;;;;8.45;1.75;;;15.30;99.90;;;;;;4973157;28;20046;-71
2022/07/15 00:48:44;;;;;;;5.65;2.03;;;15.30;99.90;;;;;;4973261;28;20023;-69
2022/07/15 00:51:10;;;;;;;5.85;1.50;;;15.30;99.90;;;;;;4973113;28;20038;-66
2022/07/15 00:53:37;;;;;;;5.20;2.13;;;15.20;99.90;;;;;;4972875;28;20043;-69
2022/07/15 00:56:06;;;;;;;7.00;1.85;;;15.20;99.90;;;;;;4973035;28;20023;-68
2022/07/15 00:58:36;;;;;;;6.68;1.40;;;15.20;99.90;;;;;;4975194;28;20018;-69
2022/07/15 01:01:01;;;;;;;5.55;1.80;;;15.20;99.90;;;;;;4975090;28;20030;-69
2022/07/15 01:03:29;;;;;;;6.85;1.70;;;15.10;99.90;;;;;;4975751;28;20027;-67
2022/07/15 01:05:57;;;;;;;9.88;2.25;;;15.10;99.90;;;;;;4976093;28;20031;-70
2022/07/15 01:08:23;;;;;;;5.15;1.67;;;15.10;99.90;;;;;;4976488;28;20077;-67
2022/07/15 01:10:49;;;;;;;9.65;2.00;;;15.10;99.90;;;;;;4976359;28;20019;-68
2022/07/15 01:13:16;;;;;;;11.20;1.75;;;15.10;99.90;;;;;;4976133;28;20058;-68
2022/07/15 01:15:41;;;;;;;5.65;1.67;;;15.00;99.90;;;;;;4976103;28;20023;-68
2022/07/15 01:18:07;;;;;;;8.52;2.13;;;15.10;99.90;;;;;;4974543;28;20042;-69
2022/07/15 01:20:33;;;;;;;7.72;1.38;;;15.10;99.90;;;;;;4975784;28;20032;-67
2022/07/15 01:22:59;;;;;;;5.15;1.50;;;15.00;99.90;;;;;;4974727;28;20480;-67
2022/07/15 01:25:26;;;;;;;5.57;1.67;;;15.00;99.90;;;;;;4975644;28;20465;-69
2022/07/15 01:27:51;;;;;;;6.00;1.40;;;15.00;99.90;;;;;;4975882;28;20097;-67
2022/07/15 01:30:17;;;;;;;3.17;1.17;;;15.00;99.90;;;;;;4975979;28;20058;-70
2022/07/15 01:32:43;;;;;;;6.18;1.40;;;15.00;99.90;;;;;;4975569;28;20089;-69
2022/07/15 01:35:09;;;;;;;6.93;1.15;;;15.00;99.90;;;;;;4975856;28;20054;-67
2022/07/15 01:37:34;;;;;;;6.22;1.00;;;14.90;99.90;;;;;;4975694;28;20026;-69
2022/07/15 01:40:00;;;;;;;8.32;1.40;;;14.90;99.90;;;;;;4975793;28;20102;-69
2022/07/15 01:42:25;;;;;;;4.78;1.05;;;14.90;99.90;;;;;;4975752;28;20058;-68
2022/07/15 01:44:51;;;;;;;7.25;1.10;;;14.90;99.90;;;;;;4975715;28;20075;-69
2022/07/15 01:47:17;;;;;;;5.63;1.38;;;14.80;99.90;;;;;;4975472;28;20025;-67
2022/07/15 01:49:42;;;;;;;4.97;1.40;;;14.80;99.90;;;;;;4975813;28;20057;-67
2022/07/15 01:52:09;;;;;;;6.50;1.30;;;14.80;99.90;;;;;;4975505;28;20078;-67
2022/07/15 01:54:35;;;;;;;6.10;0.82;;;14.80;99.90;;;;;;4975604;28;20027;-67
2022/07/15 01:57:01;;;;;;;5.05;1.38;;;14.70;99.90;;;;;;4975631;28;20041;-70
2022/07/15 01:59:27;;;;;;;3.97;1.15;;;14.70;99.90;;;;;;4975579;28;20449;-67
2022/07/15 02:01:54;;;;;;;4.82;1.30;;;14.70;99.90;;;;;;4975231;28;20380;-68
2022/07/15 02:04:21;;;;;;;6.60;1.40;;;14.70;99.90;;;;;;4975385;28;20085;-68
2022/07/15 02:06:47;;;;;;;3.80;0.85;;;14.60;99.90;;;;;;4975317;28;20035;-68
2022/07/15 02:09:12;;;;;;;3.78;1.00;;;14.60;99.90;;;;;;4974439;28;20077;-68
2022/07/15 02:11:39;;;;;;;4.55;1.10;;;14.60;99.90;;;;;;4974707;28;20544;-71
2022/07/15 02:14:05;;;;;;;6.50;1.13;;;14.70;99.90;;;;;;4974998;28;20026;-66
2022/07/15 02:16:31;;;;;;;4.97;1.25;;;14.70;99.90;;;;;;4974898;28;20457;-67
2022/07/15 02:18:58;;;;;;;3.35;1.00;;;14.60;99.90;;;;;;4973561;28;20327;-70
2022/07/15 02:21:26;;;;;;;4.70;1.33;;;14.60;99.90;;;;;;4974639;28;20029;-68
2022/07/15 02:23:52;;;;;;;2.92;0.93;;;14.60;99.90;;;;;;4974939;28;20026;-67
2022/07/15 02:26:19;;;;;;;4.72;1.52;;;14.60;99.90;;;;;;4974874;28;20027;-70
2022/07/15 02:28:44;;;;;;;4.82;1.10;;;14.50;99.90;;;;;;4974878;28;20023;-69
2022/07/15 02:31:11;;;;;;;4.10;1.25;;;14.50;99.90;;;;;;4974884;28;20161;-68
2022/07/15 02:33:37;;;;;;;9.57;1.67;;;14.40;99.90;;;;;;4974311;28;20491;-67
2022/07/15 02:36:02;;;;;;;5.07;1.30;;;14.40;99.90;;;;;;4974708;28;20102;-70
2022/07/15 02:38:28;;;;;;;4.43;1.45;;;14.30;99.90;;;;;;4974698;28;20030;-67
2022/07/15 02:40:53;;;;;;;6.13;1.50;;;14.30;99.90;;;;;;4974304;28;20042;-67
2022/07/15 02:43:19;;;;;;;7.90;1.25;;;14.20;99.90;;;;;;4974326;28;20465;-68
2022/07/15 02:45:45;;;;;;;6.90;1.60;;;14.20;99.90;;;;;;4974000;28;20078;-68
2022/07/15 02:48:10;;;;;;;7.78;1.95;;;14.20;99.90;;;;;;4974429;28;20027;-68
2022/07/15 02:50:36;;;;;;;5.45;1.20;;;14.10;99.90;;;;;;4974465;28;20102;-70
2022/07/15 02:53:02;;;;;;;6.28;1.73;;;14.10;99.90;;;;;;4974457;28;20049;-68
2022/07/15 02:55:28;;;;;;;8.93;1.60;;;14.10;99.90;;;;;;4974748;28;20037;-69
2022/07/15 02:57:54;;;;;;;8.32;1.45;;;14.00;99.90;;;;;;4974298;28;20098;-67
2022/07/15 03:00:20;;;;;;;11.63;1.48;;;14.00;99.90;;;;;;4973840;28;20069;-67
2022/07/15 03:02:47;;;;;;;6.13;1.60;;;14.00;99.90;;;;;;4974297;28;20033;-70
2022/07/15 03:05:13;;;;;;;6.55;1.30;;;14.00;99.90;;;;;;4972773;28;20029;-67
2022/07/15 03:07:40;;;;;;;3.38;0.95;;;13.90;99.90;;;;;;4974011;28;20099;-68
2022/07/15 03:10:07;;;;;;;6.20;1.33;;;13.90;99.90;;;;;;4974295;28;20026;-68
2022/07/15 03:12:33;;;;;;;7.05;1.65;;;13.80;99.90;;;;;;4973885;28;20030;-68
2022/07/15 03:15:00;;;;;;;5.93;1.23;;;13.80;99.90;;;;;;4974082;28;20099;-67
2022/07/15 03:17:25;;;;;;;7.50;1.20;;;13.80;99.90;;;;;;4977866;28;20022;-68
2022/07/15 03:19:51;;;;;;;4.22;1.48;;;13.70;99.90;;;;;;4992861;28;20352;-68
2022/07/15 03:22:16;;;;;;;5.22;1.40;;;13.70;99.90;;;;;;4980665;28;20110;-67
2022/07/15 03:24:42;;;;;;;9.60;1.50;;;13.70;99.90;;;;;;4972969;28;20109;-66
2022/07/15 03:27:08;;;;;;;8.57;1.50;;;13.60;99.90;;;;;;4973534;28;20014;-67
2022/07/15 03:29:35;;;;;;;9.30;2.47;;;13.60;99.90;;;;;;4972344;28;20031;-69
2022/07/15 03:32:01;;;;;;;5.85;1.30;;;13.60;99.90;;;;;;4973720;28;20031;-66
2022/07/15 03:34:27;;;;;;;7.57;1.48;;;13.60;99.90;;;;;;4973700;28;20483;-68
2022/07/15 03:36:53;;;;;;;9.32;1.63;;;13.60;99.90;;;;;;4972285;28;20026;-67
2022/07/15 03:39:19;;;;;;;5.10;1.25;;;13.50;99.90;;;;;;4973977;28;20027;-69
2022/07/15 03:41:46;;;;;;;7.60;1.30;;;13.50;99.90;;;;;;4973574;28;20073;-67
2022/07/15 03:44:13;;;;;;;5.68;1.20;;;13.50;99.90;;;;;;4972695;28;20049;-67
2022/07/15 03:46:39;;;;;;;7.30;1.30;;;13.50;99.90;;;;;;4973347;28;20019;-67
2022/07/15 03:49:04;;;;;;;2.63;1.27;;;13.50;99.90;;;;;;4972230;28;20026;-69
2022/07/15 03:51:32;;;;;;;8.43;1.40;;;13.50;99.90;;;;;;4973592;28;20114;-69
2022/07/15 03:54:00;;;;;;;5.25;1.10;;;13.50;99.90;;;;;;4973573;28;20022;-69
2022/07/15 03:56:26;;;;;;;7.45;2.92;;;13.50;99.90;;;;;;4973346;28;20476;-69
2022/07/15 03:58:52;;;;;;;11.18;1.55;;;13.50;99.90;;;;;;4973393;28;20027;-67
2022/07/15 04:01:18;;;;;;;9.90;2.80;;;13.50;99.90;;;;;;4973540;28;20033;-68
2022/07/15 04:03:44;;;;;;;5.03;1.17;;;13.50;99.90;;;;;;4973386;28;20034;-67
2022/07/15 04:06:09;;;;;;;4.03;0.90;;;13.50;99.90;;;;;;4972826;28;20042;-68
2022/07/15 04:08:35;;;;;;;4.78;1.40;;;13.60;99.90;;;;;;4973292;28;20031;-68
2022/07/15 04:11:00;;;;;;;5.97;1.48;;;13.60;99.90;;;;;;4973258;28;20030;-69
2022/07/15 04:13:26;;;;;;;3.63;1.30;;;13.60;99.90;;;;;;4973192;28;20094;-71
2022/07/15 04:15:52;;;;;;;4.57;1.35;;;13.60;99.90;;;;;;4973121;28;20023;-72
2022/07/15 04:18:17;;;;;;;7.45;1.30;;;13.60;99.90;;;;;;4973173;28;20026;-67
2022/07/15 04:20:43;;;;;;;5.22;1.58;;;13.70;99.90;;;;;;4973043;28;20406;-68
2022/07/15 04:23:09;;;;;;;6.93;1.45;;;13.60;99.90;;;;;;4973314;28;20018;-68
2022/07/15 04:25:35;;;;;;;7.30;2.58;;;13.70;99.90;;;;;;4972795;28;20055;-71
2022/07/15 04:28:01;;;;;;;8.95;2.03;;;13.70;99.90;;;;;;4972987;28;20523;-69
2022/07/15 04:30:26;;;;;;;8.32;1.48;;;13.70;99.90;;;;;;4973071;28;20106;-69
2022/07/15 04:32:52;;;;;;;7.20;1.55;;;13.80;99.90;;;;;;4973954;28;20039;-70
2022/07/15 04:35:17;;;;;;;6.47;1.42;;;13.80;99.90;;;;;;4977112;28;20138;-69
2022/07/15 04:37:43;;;;;;;6.88;1.45;;;13.80;99.90;;;;;;4976979;28;20356;-70
2022/07/15 04:40:09;;;;;;;5.82;1.50;;;13.90;99.90;;;;;;4976797;28;20353;-67
2022/07/15 04:42:36;;;;;;;7.78;1.52;;;13.90;99.90;;;;;;4976743;28;20019;-66
2022/07/15 04:45:02;;;;;;;4.38;1.35;;;14.00;99.90;;;;;;4976454;28;20058;-67
2022/07/15 04:47:27;;;;;;;8.23;1.85;;;14.00;99.90;;;;;;4976504;28;20145;-68
2022/07/15 04:52:43;;;;;;;6.00;1.17;;;14.20;99.90;;;;;;4976634;28;20041;-70
2022/07/15 04:55:08;;;;;;;5.30;1.70;;;14.20;99.90;;;;;;4976148;28;20023;-71
2022/07/15 04:57:34;;;;;;;9.40;2.25;;;14.30;99.90;;;;;;4976493;28;20377;-68
2022/07/15 04:59:59;;;;;;;7.18;1.90;;;14.30;99.90;;;;;;4976470;28;20468;-68
2022/07/15 05:02:25;;;;;;;3.75;0.93;;;14.40;99.90;;;;;;4976778;28;20444;-68
2022/07/15 05:04:51;;;;;;;5.57;1.40;;;14.50;99.90;;;;;;4976650;28;20023;-68
2022/07/15 05:07:17;;;;;;;7.07;1.45;;;14.60;99.90;;;;;;4976734;28;20046;-68
2022/07/15 05:09:42;;;;;;;8.98;1.40;;;14.70;99.90;;;;;;4976707;28;20103;-67
2022/07/15 05:12:08;;;;;;;8.65;1.92;;;14.80;99.90;;;;;;4976490;28;20030;-67
2022/07/15 05:14:33;;;;;;;8.73;1.80;;;14.90;99.90;;;;;;4976624;28;20039;-67
2022/07/15 05:17:00;;;;;;;6.35;1.20;;;15.00;99.90;;;;;;4976285;28;20657;-67
2022/07/15 05:19:26;;;;;;;6.80;1.33;;;15.10;99.90;;;;;;4976560;28;20022;-68
2022/07/15 05:21:52;;;;;;;6.53;1.05;;;15.20;99.90;;;;;;4975868;28;20089;-67
2022/07/15 05:24:18;;;;;;;4.95;0.95;;;15.30;99.90;;;;;;4976613;28;20057;-67
2022/07/15 05:26:44;;;;;;;5.43;0.98;;;15.40;99.90;;;;;;4976441;28;20018;-67
2022/07/15 05:29:10;;;;;;;5.63;1.00;;;15.60;99.90;;;;;;4976364;28;20054;-69
2022/07/15 05:31:35;;;;;;;5.68;0.88;;;15.80;99.90;;;;;;4976245;28;20019;-72
2022/07/15 05:34:01;;;;;;;8.02;1.20;;;16.00;99.90;;;;;;4976257;28;20039;-67
2022/07/15 05:36:27;;;;;;;3.72;0.90;;;16.10;99.90;;;;;;4976054;28;20085;-70
2022/07/15 05:38:53;;;;;;;3.20;0.73;;;16.40;99.90;;;;;;4976324;28;20030;-68
2022/07/15 05:41:19;;;;;;;5.45;1.45;;;16.70;99.90;;;;;;4976209;28;20027;-68
2022/07/15 05:43:44;;;;;;;4.50;0.85;;;17.10;99.90;;;;;;4975515;28;20034;-67
2022/07/15 05:46:11;;;;;;;7.22;0.70;;;17.60;99.90;;;;;;4975308;28;20049;-68
2022/07/15 05:48:39;;;;;;;7.20;0.98;;;18.20;99.90;;;;;;4976179;28;20023;-67
2022/07/15 05:51:05;;;;;;;3.88;0.73;;;18.80;99.90;;;;;;4975643;28;20046;-66
2022/07/15 05:53:31;;;;;;;1.77;0.90;;;19.40;99.90;;;;;;4975480;28;20089;-68
2022/07/15 05:55:57;;;;;;;7.47;1.77;;;20.00;99.50;;;;;;4975950;28;20019;-67
2022/07/15 05:58:23;;;;;;;4.63;1.00;;;20.70;98.20;;;;;;4975799;28;20062;-69
2022/07/15 06:00:50;;;;;;;3.42;0.90;;;21.30;97.10;;;;;;4975921;28;20445;-68
2022/07/15 06:03:16;;;;;;;6.22;1.00;;;22.10;96.00;;;;;;4976270;28;20453;-69
2022/07/15 06:05:42;;;;;;;3.20;0.60;;;22.90;94.30;;;;;;4975410;28;20081;-68
2022/07/15 06:08:08;;;;;;;4.45;0.90;;;23.70;92.90;;;;;;4975660;28;20034;-67
2022/07/15 06:10:34;;;;;;;5.20;0.90;;;24.40;91.60;;;;;;4974225;28;20030;-68
2022/07/15 06:12:59;;;;;;;2.83;0.75;;;25.10;90.40;;;;;;4975580;28;20070;-72
2022/07/15 06:15:25;;;;;;;4.22;1.17;;;25.80;88.70;;;;;;4975514;28;20035;-71
2022/07/15 06:17:51;;;;;;;4.63;0.77;;;26.40;85.70;;;;;;4974146;28;20360;-71
2022/07/15 06:20:17;;;;;;;4.75;1.52;;;26.90;84.10;;;;;;4975415;28;20026;-69
2022/07/15 06:22:42;;;;;;;4.15;1.10;;;27.60;82.40;;;;;;4974169;28;20023;-68
2022/07/15 06:25:08;;;;;;;7.25;2.40;;;28.30;79.30;;;;;;4975352;28;20483;-68
2022/07/15 06:27:34;;;;;;;1.80;1.42;;;28.60;78.50;;;;;;4975045;28;20023;-68
2022/07/15 06:30:00;;;;;;;4.18;0.70;;;28.50;77.70;;;;;;4975411;28;20027;-67
2022/07/15 06:32:26;;;;;;;1.65;0.65;;;28.10;77.50;;;;;;4975190;28;20049;-68
2022/07/15 06:34:51;;;;;;;4.47;0.80;;;27.90;77.50;;;;;;4974589;28;20030;-70
2022/07/15 06:37:17;;;;;;;2.38;0.95;;;27.80;76.20;;;;;;4974958;28;20023;-69
2022/07/15 06:39:43;;;;;;;4.20;1.60;;;28.10;75.80;;;;;;4975148;28;20031;-67
2022/07/15 06:42:10;;;;;;;8.02;3.17;;;28.10;75.00;;;;;;4974790;28;20085;-69
2022/07/15 06:44:35;;;;;;;4.28;2.13;;;27.80;75.60;;;;;;4974556;28;20090;-69
2022/07/15 06:47:02;;;;;;;6.35;2.05;;;27.30;75.40;;;;;;4969917;28;20014;-67
2022/07/15 06:49:28;;;;;;;6.30;1.75;;;27.20;76.00;;;;;;4973186;28;20480;-67
2022/07/15 06:51:54;;;;;;;3.58;1.90;;;27.60;75.50;;;;;;4974618;28;20031;-67
2022/07/15 06:54:20;;;;;;;7.55;3.30;;;28.40;74.30;;;;;;4973692;28;20030;-67
2022/07/15 06:56:46;;;;;;;3.05;1.30;;;29.00;72.70;;;;;;4973673;28;20325;-67
2022/07/15 06:59:11;;;;;;;8.50;3.15;;;29.30;72.30;;;;;;4974610;28;20018;-67
2022/07/15 07:01:37;;;;;;;1.33;0.60;;;29.50;71.70;;;;;;4973163;28;20023;-69
2022/07/15 07:04:03;;;;;;;4.63;2.30;;;30.10;69.70;;;;;;4973944;28;20424;-69
2022/07/15 07:06:30;;;;;;;6.40;1.95;;;30.30;69.50;;;;;;4974526;28;20384;-69
2022/07/15 07:08:55;;;;;;;4.95;1.50;;;30.50;68.50;;;;;;4974471;28;20038;-68
2022/07/15 07:11:21;;;;;;;3.47;1.90;;;31.10;68.10;;;;;;4973737;28;20372;-68
2022/07/15 07:13:48;;;;;;;4.03;1.45;;;31.50;66.10;;;;;;4974110;28;20043;-67
2022/07/15 07:16:14;;;;;;;2.47;0.73;;;31.10;66.10;;;;;;4973761;28;20019;-66
2022/07/15 07:18:40;;;;;;;7.82;2.50;;;30.80;66.60;;;;;;4972746;28;20034;-67
2022/07/15 07:21:05;;;;;;;3.97;1.83;;;30.80;66.10;;;;;;4968711;28;20093;-66
2022/07/15 07:23:31;;;;;;;3.30;1.17;;;30.80;65.60;;;;;;4969936;28;20011;-67
2022/07/15 07:25:58;;;;;;;2.75;0.82;;;30.70;65.30;;;;;;4974188;28;20023;-69
2022/07/15 07:28:24;;;;;;;4.00;1.52;;;30.80;64.70;;;;;;4972494;28;20038;-68
2022/07/15 07:30:52;;;;;;;3.72;1.33;;;31.10;63.60;;;;;;4972744;28;20049;-67
2022/07/15 07:33:18;;;;;;;1.58;0.50;;;31.30;62.90;;;;;;4973988;28;20031;-67
2022/07/15 07:35:43;;;;;;;1.90;1.00;;;31.40;61.00;;;;;;4973996;28;20019;-68
2022/07/15 07:38:10;;;;;;;4.95;2.35;;;31.20;63.40;;;;;;4974118;28;20041;-67
2022/07/15 07:40:36;;;;;;;5.97;2.88;;;31.10;64.10;;;;;;4973593;28;20037;-67
2022/07/15 07:43:01;;;;;;;4.25;1.65;;;31.30;63.90;;;;;;4972172;28;20105;-68
2022/07/15 07:45:28;;;;;;;3.25;1.75;;;31.80;62.70;;;;;;4973118;28;20043;-69
2022/07/15 07:47:57;;;;;;;3.60;1.13;;;32.00;62.20;;;;;;4973609;28;20022;-67
2022/07/15 07:50:22;;;;;;;6.93;3.35;;;32.00;61.30;;;;;;4973665;28;20031;-67
2022/07/15 07:52:48;;;;;;;4.82;1.30;;;31.80;61.70;;;;;;4973494;28;20417;-66
2022/07/15 07:55:14;;;;;;;4.07;2.15;;;31.50;62.60;;;;;;4973400;28;20110;-67
2022/07/15 07:57:51;;;;;;;1.75;1.00;;;31.30;62.70;;;;;;4973159;28;20062;-69
2022/07/15 08:00:17;;;;;;;1.65;0.47;;;31.10;61.70;;;;;;4973012;28;20513;-68
2022/07/15 08:02:43;;;;;;;6.82;2.33;;;31.10;61.50;;;;;;4973311;28;20023;-68
2022/07/15 08:05:10;;;;;;;3.72;1.67;;;31.20;61.20;;;;;;4972920;28;20118;-68
2022/07/15 08:07:38;;;;;;;6.15;2.58;;;31.10;59.60;;;;;;4972502;28;20475;-68
2022/07/15 08:10:04;;;;;;;4.07;1.60;;;31.00;60.50;;;;;;4973148;28;20441;-68
2022/07/15 08:12:30;;;;;;;7.22;2.05;;;31.00;61.30;;;;;;4973388;28;20077;-68
2022/07/15 08:14:56;;;;;;;5.75;1.15;;;31.10;60.30;;;;;;4972773;28;20422;-67
2022/07/15 08:17:22;;;;;;;1.05;0.50;;;31.20;60.70;;;;;;4973485;28;20038;-68
2022/07/15 08:19:48;;;;;;;4.68;0.65;;;31.40;61.00;;;;;;4971887;28;20025;-67
2022/07/15 08:22:14;;;;;;;3.10;1.33;;;31.60;61.50;;;;;;4973282;28;20026;-67
2022/07/15 08:24:40;;;;;;;3.90;0.85;;;32.00;60.80;;;;;;4973500;28;20065;-68
2022/07/15 08:27:05;;;;;;;2.05;1.15;;;32.20;59.20;;;;;;4971906;28;20364;-68
2022/07/15 08:29:31;;;;;;;2.90;0.90;;;32.40;58.10;;;;;;4972702;28;20098;-67
2022/07/15 08:31:56;;;;;;;4.57;1.42;;;32.90;57.60;;;;;;4972502;28;20392;-69
2022/07/15 08:34:22;;;;;;;7.60;1.45;;;33.50;57.90;;;;;;4973099;28;20027;-68
2022/07/15 08:36:48;;;;;;;2.78;1.02;;;34.10;57.50;;;;;;4971997;28;20441;-70
2022/07/15 08:39:15;;;;;;;8.68;2.35;;;34.60;56.70;;;;;;4973335;28;20401;-68
2022/07/15 08:41:41;;;;;;;5.43;1.98;;;34.90;56.30;;;;;;4973146;28;20027;-66
2022/07/15 08:44:07;;;;;;;3.35;0.70;;;35.00;56.50;;;;;;4973084;28;20369;-70
2022/07/15 08:46:33;;;;;;;2.40;0.98;;;34.70;55.60;;;;;;4972931;28;20023;-69
2022/07/15 08:49:06;;;;;;;4.90;0.88;;;34.10;55.10;;;;;;4973182;28;20170;-71
2022/07/15 08:51:37;;;;;;;11.88;2.60;;;33.80;55.20;;;;;;4972988;28;20022;-67
2022/07/15 08:54:02;;;;;;;4.78;1.30;;;33.50;56.00;;;;;;4972879;28;20050;-67
2022/07/15 08:56:28;;;;;;;3.92;0.95;;;33.30;57.30;;;;;;4973018;28;20031;-70
2022/07/15 08:58:55;;;;;;;3.80;0.90;;;33.10;57.60;;;;;;4972731;28;20373;-68
2022/07/15 09:01:20;;;;;;;0.68;0.40;;;32.80;56.30;;;;;;4972720;28;20053;-70
2022/07/15 09:03:46;;;;;;;4.07;0.90;;;32.60;57.10;;;;;;4972716;28;20445;-68
2022/07/15 09:06:31;;;;;;;2.20;0.68;;;32.70;57.00;;;;;;4972984;28;20520;-67
2022/07/15 09:08:57;;;;;;;3.20;1.15;;;33.20;56.30;;;;;;4972963;28;20021;-68
2022/07/15 09:11:29;;;;;;;3.78;0.93;;;33.30;57.10;;;;;;4975813;28;20101;-67
2022/07/15 09:14:00;;;;;;;4.15;1.30;;;33.10;55.80;;;;;;4972829;28;20035;-67
2022/07/15 09:16:26;;;;;;;2.15;0.60;;;33.30;55.30;;;;;;4973094;28;20054;-70
2022/07/15 09:18:52;;;;;;;2.60;1.30;;;33.90;55.40;;;;;;4973952;28;20023;-68
2022/07/15 09:21:19;;;;;;;2.63;0.95;;;34.30;55.50;;;;;;4976052;28;20081;-67
2022/07/15 09:23:46;;;;;;;0.75;0.38;;;35.00;55.10;;;;;;4975930;28;20029;-70
2022/07/15 09:26:26;;;;;;;2.28;0.60;;;36.00;54.00;;;;;;4976341;28;20027;-67
2022/07/15 09:28:52;;;;;;;3.97;1.25;;;35.70;53.70;;;;;;4976095;28;20035;-68
2022/07/15 09:34:11;;;;;;;1.98;0.70;;;33.80;54.00;;;;;;4974610;28;20425;-68
2022/07/15 09:36:42;;;;;;;1.45;0.70;;;33.10;54.10;;;;;;4974758;28;20481;-69
2022/07/15 09:39:07;;;;;;;3.92;1.20;;;32.80;53.80;;;;;;4974559;28;20023;-70
2022/07/15 09:41:36;;;;;;;3.95;1.08;;;32.80;54.70;;;;;;4974962;28;20093;-66
2022/07/15 09:44:17;;;;;;;2.63;0.80;;;32.90;54.70;;;;;;4974752;28;20113;-68
2022/07/15 09:46:57;;;;;;;4.55;0.80;;;32.60;54.60;;;;;;4975118;28;20365;-70
2022/07/15 09:49:22;;;;;;;2.03;0.68;;;32.30;56.20;;;;;;4976183;28;20023;-67
2022/07/15 09:51:57;;;;;;;3.88;1.40;;;32.20;56.20;;;;;;4975999;28;20030;-67
2022/07/15 09:54:25;;;;;;;2.45;0.52;;;32.60;55.90;;;;;;4976037;28;20053;-70
2022/07/15 09:56:51;;;;;;;3.35;0.82;;;32.70;55.40;;;;;;4976149;28;20023;-68
2022/07/15 09:59:19;;;;;;;4.32;1.77;;;32.30;56.30;;;;;;4975928;28;20025;-67
2022/07/15 10:01:47;;;;;;;2.80;0.60;;;32.50;56.80;;;;;;4975945;28;20110;-67
2022/07/15 10:04:15;;;;;;;4.13;1.45;;;33.00;56.80;;;;;;4975755;28;20350;-68
2022/07/15 10:06:42;;;;;;;3.65;1.05;;;33.80;56.60;;;;;;4975607;28;20477;-67
2022/07/15 10:09:09;;;;;;;1.95;0.57;;;34.90;53.50;;;;;;4974136;28;20026;-70
2022/07/15 10:11:41;;;;;;;5.50;0.75;;;35.70;51.50;;;;;;4975357;28;20130;-69
2022/07/15 10:14:16;;;;;;;2.08;0.90;;;36.20;51.80;;;;;;4975257;28;20038;-70
2022/07/15 10:16:53;;;;;;;5.18;0.63;;;36.40;52.30;;;;;;4975831;28;20019;-70
2022/07/15 10:19:57;;;;;;;1.52;0.60;;;36.40;51.90;;;;;;4975276;28;20026;-70
2022/07/15 10:22:35;;;;;;;3.35;0.70;;;36.60;52.00;;;;;;4975404;28;20457;-69
2022/07/15 10:25:11;;;;;;;3.30;1.30;;;37.30;52.20;;;;;;4975393;28;20105;-70
2022/07/15 10:27:54;;;;;;;3.00;0.90;;;37.10;51.60;;;;;;4975394;28;20047;-67
2022/07/15 10:30:21;;;;;;;1.45;0.50;;;36.40;52.00;;;;;;4974230;28;20034;-68
2022/07/15 10:33:07;;;;;;;5.53;1.77;;;36.10;52.40;;;;;;4975045;28;20038;-66
2022/07/15 10:35:36;;;;;;;1.45;0.57;;;36.30;53.00;;;;;;4975107;28;20097;-67
2022/07/15 10:38:26;;;;;;;3.75;0.80;;;35.90;53.70;;;;;;4974768;28;20015;-67
2022/07/15 10:41:06;;;;;;;4.50;1.50;;;35.70;53.30;;;;;;4974825;28;20365;-67
2022/07/15 10:43:47;;;;;;;23.58;9.00;;;35.30;52.90;;;;;;4973805;28;20027;-68
2022/07/15 10:46:16;;;;;;;2.97;1.15;;;34.90;53.10;;;;;;4974965;28;20055;-69
2022/07/15 10:48:46;;;;;;;10.65;2.75;;;34.50;52.70;;;;;;4975026;28;20030;-67
2022/07/15 10:51:13;;;;;;;5.13;1.35;;;33.90;53.90;;;;;;4974337;28;20341;-68
2022/07/15 10:53:47;;;;;;;4.57;1.50;;;33.20;53.90;;;;;;4973607;28;20133;-68
2022/07/15 10:56:30;;;;;;;3.08;1.10;;;32.70;54.40;;;;;;4974710;28;20015;-69
2022/07/15 10:59:19;;;;;;;5.82;2.35;;;32.00;55.30;;;;;;4974715;28;20042;-68
2022/07/15 11:02:11;;;;;;;3.17;1.00;;;31.70;55.70;;;;;;4974559;28;20038;-70
2022/07/15 11:04:37;;;;;;;2.40;1.02;;;31.90;55.30;;;;;;4974730;28;20015;-67
2022/07/15 11:09:54;;;;;;;2.42;1.25;;;32.20;55.30;;;;;;4974588;28;20093;-68
2022/07/15 11:12:43;;;;;;;6.35;0.85;;;32.00;55.70;;;;;;4972095;28;20161;-68
2022/07/15 11:15:16;;;;;;;1.70;0.98;;;31.60;55.30;;;;;;4956484;28;20416;-70
2022/07/15 11:17:44;;;;;;;2.95;1.30;;;31.00;56.20;;;;;;4974277;28;20019;-68
2022/07/15 11:20:18;;;;;;;4.35;1.45;;;30.80;56.70;;;;;;4973503;28;20019;-70
2022/07/15 11:22:49;;;;;;;3.30;0.77;;;31.00;56.60;;;;;;4974050;28;20025;-68
2022/07/15 11:25:28;;;;;;;6.97;2.30;;;32.10;55.30;;;;;;4974326;28;20038;-67
2022/07/15 11:28:15;;;;;;;2.30;0.80;;;33.40;54.40;;;;;;4974509;28;20043;-68
2022/07/15 11:30:53;;;;;;;5.68;1.48;;;34.60;53.40;;;;;;4974245;28;20023;-67
2022/07/15 11:33:21;;;;;;;5.00;1.13;;;35.40;52.60;;;;;;4974314;28;20109;-67
2022/07/15 11:36:20;;;;;;;4.47;1.80;;;35.90;51.20;;;;;;4974207;28;20087;-66
2022/07/15 11:38:45;;;;;;;4.93;1.70;;;36.30;51.40;;;;;;4969296;28;20039;-67
2022/07/15 11:46:50;;;;;;;5.38;1.20;;;37.00;50.20;;;;;;4973778;28;20085;-66
2022/07/15 11:49:35;;;;;;;2.83;1.30;;;35.90;51.40;;;;;;4973818;28;20055;-69
2022/07/15 11:52:03;;;;;;;1.70;0.80;;;35.00;51.90;;;;;;4973711;28;20034;-68
2022/07/15 11:54:28;;;;;;;1.83;0.80;;;34.60;52.00;;;;;;4973642;28;20026;-69
2022/07/15 11:56:58;;;;;;;3.38;0.98;;;34.50;52.10;;;;;;4973902;28;20044;-68
2022/07/15 11:59:24;;;;;;;4.38;1.10;;;34.40;52.40;;;;;;4973899;28;20483;-68
2022/07/15 12:02:01;;;;;;;2.42;0.88;;;34.40;52.60;;;;;;4973575;28;20023;-68
2022/07/15 12:04:27;;;;;;;5.80;1.13;;;35.00;51.80;;;;;;4973776;28;20121;-67
2022/07/15 12:06:52;;;;;;;5.65;1.23;;;35.30;51.60;;;;;;4973614;28;20126;-67
2022/07/15 12:09:18;;;;;;;3.10;1.40;;;35.60;52.10;;;;;;4973614;28;20031;-67
2022/07/15 12:11:43;;;;;;;4.97;1.42;;;35.80;52.20;;;;;;4973708;28;20027;-67
2022/07/15 12:14:27;;;;;;;4.07;1.23;;;36.10;52.20;;;;;;4973813;28;20031;-68
2022/07/15 12:16:53;;;;;;;4.90;1.30;;;36.20;52.50;;;;;;4972432;28;20106;-67
2022/07/15 12:19:33;;;;;;;4.43;1.20;;;35.90;53.20;;;;;;4973624;28;20023;-68
2022/07/15 12:22:09;;;;;;;4.65;1.25;;;36.10;53.40;;;;;;4973632;28;20022;-67
2022/07/15 12:24:52;;;;;;;2.78;1.30;;;36.00;53.70;;;;;;4973248;28;20338;-67
2022/07/15 12:27:38;;;;;;;4.15;1.75;;;35.80;53.90;;;;;;4973358;28;20106;-68
2022/07/15 12:30:07;;;;;;;6.18;1.73;;;35.00;54.50;;;;;;4972622;28;20042;-66
2022/07/15 12:32:33;;;;;;;5.15;1.42;;;34.20;55.80;;;;;;4972953;28;20449;-66
2022/07/15 12:35:01;;;;;;;5.05;1.30;;;34.00;56.30;;;;;;4973029;28;20093;-67
2022/07/15 12:37:29;;;;;;;7.85;3.47;;;34.00;56.10;;;;;;4970356;28;20019;-68
2022/07/15 12:40:05;;;;;;;7.18;2.70;;;33.40;56.80;;;;;;4971513;28;20019;-67
2022/07/15 12:42:32;;;;;;;5.75;2.67;;;32.60;57.80;;;;;;4971478;28;20694;-68
2022/07/15 12:45:22;;;;;;;7.85;2.30;;;32.30;58.40;;;;;;4971790;28;20094;-68
2022/07/15 12:48:07;;;;;;;6.43;2.17;;;31.90;59.20;;;;;;4970438;28;20046;-67
2022/07/15 12:50:42;;;;;;;5.80;2.17;;;31.60;59.30;;;;;;4971338;28;20081;-67
2022/07/15 12:53:08;;;;;;;11.25;2.70;;;31.10;60.10;;;;;;4971640;28;20495;-69
2022/07/15 12:55:41;;;;;;;4.10;1.60;;;30.70;61.00;;;;;;4974927;28;20022;-68
2022/07/15 12:58:09;;;;;;;5.15;1.90;;;30.30;61.60;;;;;;4975186;28;20576;-67
2022/07/15 13:00:35;;;;;;;5.47;1.98;;;29.80;62.60;;;;;;4969927;28;20412;-67
2022/07/15 13:03:11;;;;;;;2.80;1.50;;;29.60;62.50;;;;;;4973315;28;20138;-68
2022/07/15 13:05:39;;;;;;;3.72;1.40;;;29.60;63.20;;;;;;4975256;28;20345;-69
2022/07/15 13:08:06;;;;;;;5.85;2.20;;;29.50;62.90;;;;;;4974886;28;20022;-70